createdAt,value
2023-04-28T00:00:37.169Z,18.60
2023-04-28T00:03:05.049Z,18.60
2023-04-28T00:05:32.992Z,18.59
2023-04-28T00:08:00.682Z,18.60
2023-04-28T00:10:28.403Z,18.60
2023-04-28T00:12:56.044Z,18.61
2023-04-28T00:15:23.789Z,18.60
2023-04-28T00:17:53.385Z,18.60
2023-04-28T00:20:21.460Z,18.59
2023-04-28T00:22:50.601Z,18.59
2023-04-28T00:25:18.324Z,18.59
2023-04-28T00:27:46.023Z,18.57
2023-04-28T00:30:13.848Z,18.59
2023-04-28T00:32:41.532Z,18.58
2023-04-28T00:35:10.926Z,18.58
2023-04-28T00:37:38.583Z,18.58
2023-04-28T00:40:06.858Z,18.57
2023-04-28T00:42:34.583Z,18.57
2023-04-28T00:45:05.854Z,18.58
2023-04-28T00:47:33.915Z,18.59
2023-04-28T00:50:01.955Z,18.58
2023-04-28T00:52:31.112Z,18.59
2023-04-28T00:54:58.748Z,18.57
2023-04-28T00:57:27.125Z,18.57
2023-04-28T00:59:54.821Z,18.56
2023-04-28T01:02:22.699Z,18.57
2023-04-28T01:04:51.196Z,18.56
2023-04-28T01:07:18.877Z,18.56
2023-04-28T01:09:48.616Z,18.56
2023-04-28T01:12:19.873Z,18.55
2023-04-28T01:14:50.567Z,18.54
2023-04-28T01:17:18.351Z,18.56
2023-04-28T01:19:46.117Z,18.57
2023-04-28T01:22:16.449Z,18.55
2023-04-28T01:24:46.343Z,18.56
2023-04-28T01:27:15.216Z,18.53
2023-04-28T01:29:43.073Z,18.54
2023-04-28T01:32:10.738Z,18.55
2023-04-28T01:34:38.457Z,18.54
2023-04-28T01:37:07.338Z,18.54
2023-04-28T01:39:37.874Z,18.53
2023-04-28T01:42:07.107Z,18.54
2023-04-28T01:44:35.027Z,18.52
2023-04-28T01:47:03.893Z,18.54
2023-04-28T01:49:31.618Z,18.52
2023-04-28T01:51:59.384Z,18.51
2023-04-28T01:54:27.541Z,18.52
2023-04-28T01:56:55.512Z,18.52
2023-04-28T01:59:24.924Z,18.51
2023-04-28T02:01:52.564Z,18.52
2023-04-28T02:04:20.534Z,18.51
2023-04-28T02:06:48.274Z,18.51
2023-04-28T02:09:16.088Z,18.51
2023-04-28T02:11:43.874Z,18.51
2023-04-28T02:14:11.516Z,18.51
2023-04-28T02:16:40.718Z,18.50
2023-04-28T02:19:08.480Z,18.51
2023-04-28T02:21:36.186Z,18.50
2023-04-28T02:24:03.851Z,18.49
2023-04-28T02:26:32.492Z,18.48
2023-04-28T02:29:00.136Z,18.49
2023-04-28T02:31:27.785Z,18.49
2023-04-28T02:33:57.096Z,18.48
2023-04-28T02:36:24.851Z,18.47
2023-04-28T02:38:52.498Z,18.47
2023-04-28T02:41:20.216Z,18.47
2023-04-28T02:43:47.866Z,18.48
2023-04-28T02:46:15.712Z,18.47
2023-04-28T02:48:43.374Z,18.46
2023-04-28T02:51:15.218Z,18.46
2023-04-28T02:53:42.828Z,18.46
2023-04-28T02:56:10.919Z,18.47
2023-04-28T02:58:38.712Z,18.47
2023-04-28T03:01:06.489Z,18.46
2023-04-28T03:03:34.901Z,18.46
2023-04-28T03:06:02.704Z,18.45
2023-04-28T03:08:31.753Z,18.44
2023-04-28T03:10:59.483Z,18.45
2023-04-28T03:13:27.302Z,18.45
2023-04-28T03:15:55.230Z,18.43
2023-04-28T03:18:23.995Z,18.44
2023-04-28T03:20:51.735Z,18.43
2023-04-28T03:23:20.612Z,18.42
2023-04-28T03:25:49.771Z,18.42
2023-04-28T03:28:17.362Z,18.41
2023-04-28T03:30:45.509Z,18.42
2023-04-28T03:33:13.211Z,18.41
2023-04-28T03:35:41.204Z,18.42
2023-04-28T03:38:08.751Z,18.41
2023-04-28T03:40:36.933Z,18.41
2023-04-28T03:43:40.469Z,18.41
2023-04-28T03:46:21.241Z,18.41
2023-04-28T03:48:49.755Z,18.42
2023-04-28T03:51:19.784Z,18.41
2023-04-28T03:53:47.602Z,18.37
2023-04-28T03:56:15.287Z,18.41
2023-04-28T03:58:44.557Z,18.40
2023-04-28T04:01:12.298Z,18.40
2023-04-28T04:03:40.102Z,18.41
2023-04-28T04:06:07.997Z,18.42
2023-04-28T04:08:35.635Z,18.41
2023-04-28T04:11:03.432Z,18.40
2023-04-28T04:13:31.478Z,18.41
2023-04-28T04:16:00.835Z,18.42
2023-04-28T04:18:28.781Z,18.42
2023-04-28T04:21:25.679Z,18.42
2023-04-28T04:23:53.745Z,18.44
2023-04-28T04:26:21.431Z,18.44
2023-04-28T04:28:50.858Z,18.44
2023-04-28T04:31:20.731Z,18.45
2023-04-28T04:33:48.770Z,18.45
2023-04-28T04:36:17.692Z,18.45
2023-04-28T04:38:45.281Z,18.46
2023-04-28T04:41:17.045Z,18.43
2023-04-28T04:43:44.995Z,18.47
2023-04-28T04:46:13.232Z,18.47
2023-04-28T04:48:42.498Z,18.49
2023-04-28T04:51:10.248Z,18.50
2023-04-28T04:53:37.913Z,18.50
2023-04-28T04:56:07.798Z,18.50
2023-04-28T04:58:37.816Z,18.53
2023-04-28T05:01:25.550Z,18.53
2023-04-28T05:03:54.890Z,18.57
2023-04-28T05:06:22.625Z,18.59
2023-04-28T05:08:50.676Z,18.59
2023-04-28T05:11:18.833Z,18.60
2023-04-28T05:13:47.374Z,18.62
2023-04-28T05:16:15.231Z,18.63
2023-04-28T05:18:56.303Z,18.63
2023-04-28T05:21:23.861Z,18.65
2023-04-28T05:23:51.498Z,18.65
2023-04-28T05:26:19.156Z,18.67
2023-04-28T05:28:46.716Z,18.67
2023-04-28T05:31:16.345Z,18.69
2023-04-28T05:33:44.046Z,18.70
2023-04-28T05:36:16.728Z,18.71
2023-04-28T05:38:46.223Z,18.72
2023-04-28T05:41:13.770Z,18.72
2023-04-28T05:43:42.048Z,18.73
2023-04-28T05:46:28.465Z,18.75
2023-04-28T05:48:58.270Z,16.82
2023-04-28T05:51:28.202Z,14.16
2023-04-28T05:53:55.804Z,13.53
2023-04-28T05:56:25.200Z,14.07
2023-04-28T05:58:53.273Z,15.66
2023-04-28T06:01:20.839Z,16.41
2023-04-28T06:03:50.304Z,16.70
2023-04-28T06:06:18.054Z,16.77
2023-04-28T06:08:47.722Z,16.80
2023-04-28T06:11:15.276Z,16.72
2023-04-28T06:13:42.849Z,16.73
2023-04-28T06:16:10.534Z,16.71
2023-04-28T06:18:38.258Z,16.73
2023-04-28T06:21:06.312Z,16.95
2023-04-28T06:23:33.891Z,17.23
2023-04-28T06:26:02.979Z,17.39
2023-04-28T06:28:30.717Z,17.51
2023-04-28T06:30:59.851Z,17.59
2023-04-28T06:33:27.396Z,17.65
2023-04-28T06:35:54.934Z,17.69
2023-04-28T06:38:22.666Z,17.71
2023-04-28T06:40:50.244Z,17.73
2023-04-28T06:43:19.212Z,17.80
2023-04-28T06:45:56.810Z,17.83
2023-04-28T06:48:26.448Z,17.88
2023-04-28T06:50:54.061Z,17.92
2023-04-28T06:53:23.452Z,17.94
2023-04-28T06:55:53.744Z,17.97
2023-04-28T06:58:23.349Z,18.00
2023-04-28T07:00:50.991Z,18.00
2023-04-28T07:03:18.682Z,18.02
2023-04-28T07:05:46.335Z,18.03
2023-04-28T07:08:13.976Z,18.05
2023-04-28T07:10:41.881Z,18.07
2023-04-28T07:13:09.779Z,18.09
2023-04-28T07:15:39.036Z,18.10
2023-04-28T07:18:07.431Z,18.11
2023-04-28T07:20:35.111Z,18.11
2023-04-28T07:23:02.681Z,18.13
2023-04-28T07:25:30.238Z,18.15
2023-04-28T07:27:57.782Z,18.16
2023-04-28T07:30:27.754Z,18.17
2023-04-28T07:32:57.315Z,18.18
2023-04-28T07:35:24.977Z,18.19
2023-04-28T07:37:52.544Z,18.20
2023-04-28T07:40:20.126Z,18.21
2023-04-28T07:42:47.938Z,18.23
2023-04-28T07:45:15.910Z,18.25
2023-04-28T07:47:43.550Z,18.25
2023-04-28T07:50:12.562Z,18.27
2023-04-28T07:52:40.576Z,18.28
2023-04-28T07:55:08.357Z,18.29
2023-04-28T07:57:36.101Z,18.29
2023-04-28T08:00:03.770Z,18.30
2023-04-28T08:02:39.546Z,18.32
2023-04-28T08:05:09.317Z,18.33
2023-04-28T08:07:38.672Z,18.34
2023-04-28T08:10:06.685Z,18.35
2023-04-28T08:12:34.362Z,18.36
2023-04-28T08:15:02.000Z,18.37
2023-04-28T08:17:29.649Z,18.37
2023-04-28T08:19:57.297Z,18.39
2023-04-28T08:22:24.856Z,18.40
2023-04-28T08:24:53.838Z,18.41
2023-04-28T08:27:21.523Z,18.41
2023-04-28T08:29:49.102Z,18.43
2023-04-28T08:32:16.660Z,18.44
2023-04-28T08:34:44.240Z,18.45
2023-04-28T08:37:12.104Z,18.45
2023-04-28T08:39:39.636Z,18.46
2023-04-28T08:42:08.659Z,18.47
2023-04-28T08:44:38.152Z,18.49
2023-04-28T08:47:05.732Z,18.49
2023-04-28T08:49:35.713Z,18.51
2023-04-28T08:52:03.346Z,18.51
2023-04-28T08:54:31.917Z,18.53
2023-04-28T08:56:59.844Z,18.52
2023-04-28T08:59:28.893Z,18.54
2023-04-28T09:01:57.099Z,18.55
2023-04-28T09:04:25.350Z,18.55
2023-04-28T09:06:53.198Z,18.56
2023-04-28T09:09:21.763Z,18.57
2023-04-28T09:11:52.858Z,18.59
2023-04-28T09:14:20.490Z,18.60
2023-04-28T09:16:49.552Z,18.60
2023-04-28T09:19:17.403Z,18.61
2023-04-28T09:21:49.145Z,18.62
2023-04-28T09:24:29.546Z,18.61
2023-04-28T09:26:57.203Z,18.63
2023-04-28T09:29:24.832Z,18.63
2023-04-28T09:31:54.764Z,18.64
2023-04-28T09:34:22.772Z,18.65
2023-04-28T09:36:50.619Z,18.67
2023-04-28T09:39:29.276Z,18.67
2023-04-28T09:41:57.272Z,18.69
2023-04-28T09:44:24.913Z,18.68
2023-04-28T09:46:53.847Z,18.70
2023-04-28T09:49:21.744Z,18.70
2023-04-28T09:51:49.800Z,18.71
2023-04-28T09:54:17.365Z,18.73
2023-04-28T09:56:44.973Z,18.73
2023-04-28T09:59:12.636Z,18.74
2023-04-28T10:01:41.300Z,18.75
2023-04-28T10:04:11.997Z,18.75
2023-04-28T10:06:39.735Z,18.75
2023-04-28T10:09:07.560Z,18.76
2023-04-28T10:11:35.099Z,18.77
2023-04-28T10:14:02.689Z,18.77
2023-04-28T10:16:31.378Z,18.78
2023-04-28T10:18:59.032Z,18.78
2023-04-28T10:21:28.078Z,18.78
2023-04-28T10:24:13.397Z,18.78
2023-04-28T10:26:59.035Z,18.80
2023-04-28T10:29:26.625Z,18.81
2023-04-28T10:32:13.026Z,18.82
2023-04-28T10:34:40.558Z,18.82
2023-04-28T10:37:09.712Z,18.83
2023-04-28T10:39:37.324Z,18.85
2023-04-28T10:42:05.238Z,18.85
2023-04-28T10:44:44.843Z,18.86
2023-04-28T10:47:12.410Z,18.86
2023-04-28T10:49:58.500Z,18.88
2023-04-28T10:52:44.554Z,18.88
2023-04-28T10:55:28.868Z,18.88
2023-04-28T10:58:11.836Z,18.86
2023-04-28T11:00:40.125Z,18.90
2023-04-28T11:03:07.833Z,18.91
2023-04-28T11:05:36.109Z,18.92
2023-04-28T11:08:34.255Z,18.93
2023-04-28T11:11:16.027Z,18.93
2023-04-28T11:13:46.723Z,18.94
2023-04-28T11:16:18.414Z,18.93
2023-04-28T11:18:55.495Z,18.95
2023-04-28T11:21:23.909Z,18.96
2023-04-28T11:23:51.444Z,18.95
2023-04-28T11:26:21.256Z,18.96
2023-04-28T11:28:49.365Z,18.97
2023-04-28T11:31:20.567Z,18.98
2023-04-28T11:33:48.428Z,18.99
2023-04-28T11:36:23.363Z,19.00
2023-04-28T11:38:50.993Z,19.01
2023-04-28T11:41:18.583Z,19.02
2023-04-28T11:43:47.904Z,19.01
2023-04-28T11:46:19.241Z,19.03
2023-04-28T11:48:46.949Z,19.03
2023-04-28T11:51:33.609Z,19.05
2023-04-28T11:54:01.416Z,19.06
2023-04-28T11:56:29.103Z,19.07
2023-04-28T11:59:05.430Z,19.03
2023-04-28T12:01:34.061Z,19.02
2023-04-28T12:04:01.864Z,19.00
2023-04-28T12:06:29.775Z,18.98
2023-04-28T12:08:58.103Z,18.98
2023-04-28T12:11:26.060Z,18.95
2023-04-28T12:14:10.924Z,18.95
2023-04-28T12:16:40.120Z,18.94
2023-04-28T12:19:10.863Z,18.95
2023-04-28T12:21:39.305Z,18.93
2023-04-28T12:24:26.109Z,18.91
2023-04-28T12:26:54.250Z,18.88
2023-04-28T12:29:41.938Z,18.88
2023-04-28T12:32:10.063Z,18.86
2023-04-28T12:34:38.084Z,18.83
2023-04-28T12:37:06.497Z,18.82
2023-04-28T12:39:34.890Z,18.80
2023-04-28T12:42:03.473Z,18.81
2023-04-28T12:44:35.419Z,18.80
2023-04-28T12:47:05.174Z,18.78
2023-04-28T12:49:32.758Z,18.77
2023-04-28T12:52:00.374Z,18.76
2023-04-28T12:54:27.934Z,18.74
2023-04-28T12:56:55.682Z,18.76
2023-04-28T12:59:23.869Z,18.74
2023-04-28T13:01:51.503Z,18.75
2023-04-28T13:04:20.862Z,18.75
2023-04-28T13:06:48.966Z,18.74
2023-04-28T13:09:16.561Z,18.73
2023-04-28T13:11:44.168Z,18.73
2023-04-28T13:14:11.805Z,18.71
2023-04-28T13:16:39.472Z,18.71
2023-04-28T13:19:10.601Z,18.69
2023-04-28T13:21:39.866Z,18.69
2023-04-28T13:24:07.616Z,18.70
2023-04-28T13:26:35.253Z,18.68
2023-04-28T13:29:03.966Z,18.70
2023-04-28T13:31:31.685Z,18.73
2023-04-28T13:34:01.947Z,18.77
2023-04-28T13:36:30.378Z,18.79
2023-04-28T13:39:02.674Z,18.82
2023-04-28T13:41:30.926Z,18.83
2023-04-28T13:43:58.635Z,18.81
2023-04-28T13:46:26.230Z,18.87
2023-04-28T13:48:55.422Z,18.87
2023-04-28T13:51:23.627Z,18.87
2023-04-28T13:53:51.237Z,18.88
2023-04-28T13:56:21.324Z,18.87
2023-04-28T13:58:49.021Z,18.88
2023-04-28T14:01:16.720Z,18.89
2023-04-28T14:03:44.852Z,18.89
2023-04-28T14:06:12.873Z,18.87
2023-04-28T14:08:40.391Z,18.89
2023-04-28T14:11:08.308Z,18.89
2023-04-28T14:13:37.260Z,18.90
2023-04-28T14:16:05.299Z,18.90
2023-04-28T14:18:33.823Z,18.90
2023-04-28T14:21:02.202Z,18.91
2023-04-28T14:23:30.348Z,18.91
2023-04-28T14:25:58.281Z,18.91
2023-04-28T14:28:26.006Z,18.92
2023-04-28T14:30:55.751Z,18.92
2023-04-28T14:33:23.524Z,18.92
2023-04-28T14:35:51.063Z,18.92
2023-04-28T14:38:18.689Z,18.92
2023-04-28T14:40:46.345Z,18.92
2023-04-28T14:43:14.762Z,18.91
2023-04-28T14:45:42.369Z,18.90
2023-04-28T14:48:11.322Z,18.93
2023-04-28T14:50:38.874Z,18.93
2023-04-28T14:53:07.382Z,18.94
2023-04-28T14:55:35.093Z,18.94
2023-04-28T14:58:02.906Z,18.96
2023-04-28T15:00:30.763Z,18.95
2023-04-28T15:02:58.633Z,18.95
2023-04-28T15:05:27.747Z,18.95
2023-04-28T15:07:55.432Z,18.96
2023-04-28T15:10:23.074Z,18.95
2023-04-28T15:12:50.626Z,18.99
2023-04-28T15:15:21.104Z,19.00
2023-04-28T15:17:48.692Z,18.98
2023-04-28T15:20:16.290Z,18.98
2023-04-28T15:22:45.619Z,18.97
2023-04-28T15:25:13.192Z,18.98
2023-04-28T15:27:40.749Z,18.98
2023-04-28T15:30:09.558Z,18.97
2023-04-28T15:32:37.467Z,18.97
2023-04-28T15:35:05.290Z,18.96
2023-04-28T15:37:47.570Z,18.97
2023-04-28T15:40:15.952Z,18.96
2023-04-28T15:42:48.772Z,18.96
2023-04-28T15:45:16.993Z,18.96
2023-04-28T15:47:45.172Z,18.97
2023-04-28T15:50:12.784Z,18.98
2023-04-28T15:52:45.875Z,18.98
2023-04-28T15:55:15.079Z,18.97
2023-04-28T15:57:42.810Z,18.99
2023-04-28T16:00:11.282Z,18.97
2023-04-28T16:02:39.157Z,18.98
2023-04-28T16:05:07.266Z,18.97
2023-04-28T16:07:40.667Z,18.98
2023-04-28T16:10:09.080Z,18.97
2023-04-28T16:12:38.799Z,18.99
2023-04-28T16:15:07.002Z,18.98
2023-04-28T16:17:35.909Z,18.98
2023-04-28T16:20:05.322Z,18.97
2023-04-28T16:22:33.094Z,18.97
2023-04-28T16:25:03.681Z,18.96
2023-04-28T16:27:31.959Z,18.96
2023-04-28T16:30:01.011Z,18.95
2023-04-28T16:32:28.803Z,18.96
2023-04-28T16:34:57.067Z,18.95
2023-04-28T16:37:24.624Z,18.95
2023-04-28T16:39:52.486Z,18.96
2023-04-28T16:42:20.941Z,18.95
2023-04-28T16:44:50.025Z,18.95
2023-04-28T16:47:20.946Z,18.93
2023-04-28T16:49:48.909Z,18.93
2023-04-28T16:52:16.721Z,18.94
2023-04-28T16:54:44.392Z,18.93
2023-04-28T16:57:12.015Z,18.93
2023-04-28T16:59:39.633Z,18.94
2023-04-28T17:02:07.319Z,18.94
2023-04-28T17:04:37.241Z,18.94
2023-04-28T17:07:05.520Z,18.94
2023-04-28T17:09:33.774Z,18.94
2023-04-28T17:12:03.594Z,18.94
2023-04-28T17:14:31.350Z,18.93
2023-04-28T17:16:59.125Z,18.93
2023-04-28T17:19:26.812Z,18.92
2023-04-28T17:21:58.328Z,18.92
2023-04-28T17:24:25.926Z,18.91
2023-04-28T17:26:53.666Z,18.93
2023-04-28T17:29:22.181Z,18.91
2023-04-28T17:31:49.957Z,18.91
2023-04-28T17:34:19.884Z,18.91
2023-04-28T17:36:47.458Z,18.91
2023-04-28T17:39:16.887Z,18.89
2023-04-28T17:41:45.034Z,18.91
2023-04-28T17:44:12.715Z,18.92
2023-04-28T17:46:40.683Z,18.90
2023-04-28T17:49:08.623Z,18.90
2023-04-28T17:51:37.947Z,18.89
2023-04-28T17:54:06.244Z,18.89
2023-04-28T17:56:36.603Z,18.88
2023-04-28T17:59:04.107Z,18.88
2023-04-28T18:01:33.389Z,18.88
2023-04-28T18:04:01.078Z,18.87
2023-04-28T18:06:29.850Z,18.88
2023-04-28T18:08:57.439Z,18.87
2023-04-28T18:11:27.040Z,18.85
2023-04-28T18:13:56.319Z,18.82
2023-04-28T18:16:23.965Z,18.83
2023-04-28T18:18:51.516Z,18.84
2023-04-28T18:21:19.074Z,18.83
2023-04-28T18:23:47.540Z,18.82
2023-04-28T18:26:15.102Z,18.82
2023-04-28T18:28:42.692Z,18.83
2023-04-28T18:31:11.939Z,18.83
2023-04-28T18:33:39.566Z,18.85
2023-04-28T18:36:07.337Z,18.82
2023-04-28T18:38:36.546Z,18.79
2023-04-28T18:41:13.373Z,18.96
2023-04-28T18:43:41.675Z,19.10
2023-04-28T18:46:12.652Z,19.16
2023-04-28T18:48:40.603Z,19.25
2023-04-28T18:51:08.258Z,19.30
2023-04-28T18:53:36.688Z,19.35
2023-04-28T18:56:06.700Z,19.41
2023-04-28T18:58:37.042Z,19.44
2023-04-28T19:01:05.141Z,19.49
2023-04-28T19:03:34.341Z,19.54
2023-04-28T19:06:01.986Z,19.58
2023-04-28T19:08:29.630Z,19.61
2023-04-28T19:10:58.439Z,19.64
2023-04-28T19:13:26.083Z,19.69
2023-04-28T19:15:54.246Z,19.72
2023-04-28T19:18:22.376Z,19.74
2023-04-28T19:20:52.216Z,19.80
2023-04-28T19:23:19.853Z,19.91
2023-04-28T19:25:48.464Z,19.93
2023-04-28T19:28:16.025Z,19.91
2023-04-28T19:30:43.674Z,19.96
2023-04-28T19:33:11.408Z,19.98
2023-04-28T19:35:39.453Z,19.97
2023-04-28T19:38:08.848Z,19.97
2023-04-28T19:40:36.363Z,19.96
2023-04-28T19:43:04.203Z,19.95
2023-04-28T19:45:31.961Z,19.95
2023-04-28T19:47:59.683Z,19.96
2023-04-28T19:50:27.345Z,19.97
2023-04-28T19:52:54.932Z,19.98
2023-04-28T19:55:24.023Z,19.99
2023-04-28T19:57:52.184Z,20.00
2023-04-28T20:00:19.911Z,20.01
2023-04-28T20:02:47.812Z,20.02
2023-04-28T20:05:15.745Z,20.02
2023-04-28T20:07:43.721Z,20.05
2023-04-28T20:10:11.721Z,20.06
2023-04-28T20:12:41.294Z,20.10
2023-04-28T20:15:09.588Z,20.09
2023-04-28T20:17:37.358Z,20.06
2023-04-28T20:20:06.580Z,20.02
2023-04-28T20:22:35.351Z,20.01
2023-04-28T20:25:05.824Z,20.00
2023-04-28T20:27:36.423Z,20.02
2023-04-28T20:30:06.305Z,20.00
2023-04-28T20:32:35.399Z,19.99
2023-04-28T20:35:05.682Z,19.98
2023-04-28T20:37:37.729Z,19.97
2023-04-28T20:40:07.318Z,19.96
2023-04-28T20:42:35.025Z,19.96
2023-04-28T20:45:04.446Z,19.95
2023-04-28T20:47:33.685Z,19.95
2023-04-28T20:50:01.466Z,19.93
2023-04-28T20:52:35.192Z,19.96
2023-04-28T20:55:02.940Z,19.94
2023-04-28T20:57:38.124Z,19.92
2023-04-28T21:00:07.186Z,19.91
2023-04-28T21:02:36.321Z,19.90
2023-04-28T21:05:04.055Z,19.89
2023-04-28T21:07:32.005Z,19.88
2023-04-28T21:09:59.723Z,19.86
2023-04-28T21:12:28.290Z,19.86
2023-04-28T21:14:56.796Z,19.85
2023-04-28T21:17:24.453Z,19.84
2023-04-28T21:19:53.641Z,19.82
2023-04-28T21:22:21.233Z,19.83
2023-04-28T21:24:48.811Z,19.82
2023-04-28T21:27:16.363Z,19.82
2023-04-28T21:29:44.049Z,19.83
2023-04-28T21:32:11.712Z,19.83
2023-04-28T21:34:39.362Z,19.82
2023-04-28T21:37:08.347Z,19.83
2023-04-28T21:39:36.665Z,19.85
2023-04-28T21:42:06.375Z,19.83
2023-04-28T21:44:34.460Z,19.81
2023-04-28T21:47:02.719Z,19.81
2023-04-28T21:49:30.306Z,19.85
2023-04-28T21:51:57.964Z,19.86
2023-04-28T21:54:27.809Z,19.83
2023-04-28T21:56:55.539Z,19.82
2023-04-28T21:59:23.134Z,19.82
2023-04-28T22:48:27.783Z,19.76
2023-04-28T22:50:55.479Z,19.76
2023-04-28T22:53:23.254Z,19.76
2023-04-28T22:55:51.698Z,19.73
2023-04-28T22:58:19.521Z,19.75
2023-04-28T23:00:47.203Z,19.75
2023-04-28T23:03:14.952Z,19.74
2023-04-28T23:05:44.221Z,19.75
2023-04-28T23:08:11.810Z,19.75
2023-04-28T23:10:39.517Z,19.73
2023-04-28T23:13:07.268Z,19.74
2023-04-28T23:15:34.929Z,19.75
2023-04-28T23:18:02.685Z,19.74
2023-04-28T23:20:30.523Z,19.75
2023-04-28T23:22:59.538Z,19.73
2023-04-28T23:25:27.218Z,19.73
2023-04-28T23:27:54.823Z,19.72
2023-04-28T23:45:58.268Z,19.70
2023-04-28T23:48:27.616Z,19.69
2023-04-28T23:50:55.532Z,19.71
2023-04-28T23:53:23.206Z,19.70
2023-04-28T23:55:51.518Z,19.70
2023-04-28T23:58:19.431Z,19.72
